Huvudsida
METAR-TAF:

METAR-TAF

Flygplatser :

Villmanstrands flygplats

Villmanstrand, Finland

latitud: 61-02-45N, longitud: 028-08-55E, höjd: 106 m

Aktuellt väderrapport

Denna rapport gjordes för 19 minuter sedan, klockan 20:20 UTC
Vind 8 kt från nord/nordost
Temperatur -4°C
Fuktighet 86%
Tryck 1008 hPa
Sikt 10 km eller mer
Mulet på en höjd av 900 ft

METAR: EFLP 262020Z AUTO 03008KT 9999 OVC009 M04/M06 Q1008

Tid: 22:39 (20:39 UTC)

Väderprognos

Denna rapport gjordes för 2 timmar och 48 minuter sedan, klockan 17:51 UTC
Prognos gäller från 26 kl. 18 UTC till 26 kl. 20 UTC
Vind 10 kt från nord
Sikt 10 km eller mer
Mulet på en höjd av 800 ft
Temporärt
från 26 kl. 18 UTC till 26 kl. 20 UTC
Sikt: 4000 m
lätt snö
Sannolikhet 40%
från 26 kl. 18 UTC till 26 kl. 20 UTC
Spridda moln på en höjd av 800 ft
Brutna moln på en höjd av 3000 ft

TAF: EFLP 261751Z 2618/2620 01010KT 9999 OVC008 TEMPO 2618/2620 4000 -SN PROB40 2618/2620 SCT008 BKN030

Aktuella väderrapporter och prognoser från 4000 flygplatser (METAR- och TAF-rapporter).

De tillgängliga stationerna syns som gula och röda prickar på kartan.

För musen över prickarna för att se namnen på stationerna.

Klicka sedan för att få väderrapporter och prognoser.

För att ändra kartan: Klicka på de gröna knapparna med ett svart kors på för att zooma in; den gröna knappen med ett streck på för att zooma ut; eller på de gröna pilarna för angränsande kartor.


METAR-TAF: